sensor_id;sensor_type;location;lat;lon;timestamp;temperature;humidity
39655;DHT22;25336;59.944;11.010;2022-07-29T00:01:21;17.00;54.00
39655;DHT22;25336;59.944;11.010;2022-07-29T00:03:47;17.30;54.30
39655;DHT22;25336;59.944;11.010;2022-07-29T00:06:14;17.00;54.40
39655;DHT22;25336;59.944;11.010;2022-07-29T00:08:39;16.90;54.50
39655;DHT22;25336;59.944;11.010;2022-07-29T00:11:05;17.40;54.80
39655;DHT22;25336;59.944;11.010;2022-07-29T00:13:31;16.80;54.80
39655;DHT22;25336;59.944;11.010;2022-07-29T00:15:59;17.80;55.40
39655;DHT22;25336;59.944;11.010;2022-07-29T00:18:25;16.70;55.10
39655;DHT22;25336;59.944;11.010;2022-07-29T00:20:50;16.60;55.30
39655;DHT22;25336;59.944;11.010;2022-07-29T00:23:16;16.60;55.50
39655;DHT22;25336;59.944;11.010;2022-07-29T00:25:41;16.50;56.30
39655;DHT22;25336;59.944;11.010;2022-07-29T00:28:07;16.40;55.80
39655;DHT22;25336;59.944;11.010;2022-07-29T00:30:35;16.40;55.90
39655;DHT22;25336;59.944;11.010;2022-07-29T00:33:01;16.30;55.90
39655;DHT22;25336;59.944;11.010;2022-07-29T00:35:27;17.10;56.40
39655;DHT22;25336;59.944;11.010;2022-07-29T00:38:12;16.20;56.10
39655;DHT22;25336;59.944;11.010;2022-07-29T00:40:38;17.20;56.80
39655;DHT22;25336;59.944;11.010;2022-07-29T00:43:04;16.20;56.50
39655;DHT22;25336;59.944;11.010;2022-07-29T00:45:29;16.50;56.70
39655;DHT22;25336;59.944;11.010;2022-07-29T00:47:55;16.00;56.50
39655;DHT22;25336;59.944;11.010;2022-07-29T00:50:21;16.00;56.70
39655;DHT22;25336;59.944;11.010;2022-07-29T00:52:47;15.90;56.80
39655;DHT22;25336;59.944;11.010;2022-07-29T00:55:15;15.90;57.00
39655;DHT22;25336;59.944;11.010;2022-07-29T00:57:42;15.80;57.10
39655;DHT22;25336;59.944;11.010;2022-07-29T01:00:10;15.80;57.30
39655;DHT22;25336;59.944;11.010;2022-07-29T01:02:36;15.70;57.50
39655;DHT22;25336;59.944;11.010;2022-07-29T01:05:04;15.70;57.50
39655;DHT22;25336;59.944;11.010;2022-07-29T01:07:30;15.60;57.70
39655;DHT22;25336;59.944;11.010;2022-07-29T01:09:57;14.90;57.40
39655;DHT22;25336;59.944;11.010;2022-07-29T01:12:27;15.50;57.80
39655;DHT22;25336;59.944;11.010;2022-07-29T01:14:54;15.80;58.40
39655;DHT22;25336;59.944;11.010;2022-07-29T01:17:54;15.40;58.10
39655;DHT22;25336;59.944;11.010;2022-07-29T01:23:24;15.30;58.90
39655;DHT22;25336;59.944;11.010;2022-07-29T01:31:10;15.20;58.80
39655;DHT22;25336;59.944;11.010;2022-07-29T01:33:45;15.10;58.60
39655;DHT22;25336;59.944;11.010;2022-07-29T01:36:47;15.10;59.10
39655;DHT22;25336;59.944;11.010;2022-07-29T01:39:26;15.00;59.60
39655;DHT22;25336;59.944;11.010;2022-07-29T01:42:10;15.40;59.30
39655;DHT22;25336;59.944;11.010;2022-07-29T01:44:46;15.00;59.50
39655;DHT22;25336;59.944;11.010;2022-07-29T01:47:20;15.70;59.50
39655;DHT22;25336;59.944;11.010;2022-07-29T01:49:51;14.90;59.20
39655;DHT22;25336;59.944;11.010;2022-07-29T01:52:30;16.00;59.70
39655;DHT22;25336;59.944;11.010;2022-07-29T01:54:59;14.90;59.60
39655;DHT22;25336;59.944;11.010;2022-07-29T01:57:29;15.30;59.40
39655;DHT22;25336;59.944;11.010;2022-07-29T01:59:58;14.80;59.10
39655;DHT22;25336;59.944;11.010;2022-07-29T02:02:26;14.80;59.20
39655;DHT22;25336;59.944;11.010;2022-07-29T02:04:53;15.60;59.70
39655;DHT22;25336;59.944;11.010;2022-07-29T02:07:21;14.70;59.30
39655;DHT22;25336;59.944;11.010;2022-07-29T02:09:50;15.60;59.90
39655;DHT22;25336;59.944;11.010;2022-07-29T02:12:19;14.60;59.50
39655;DHT22;25336;59.944;11.010;2022-07-29T02:14:48;15.30;60.00
39655;DHT22;25336;59.944;11.010;2022-07-29T02:17:17;14.60;59.70
39655;DHT22;25336;59.944;11.010;2022-07-29T02:19:46;15.30;60.10
39655;DHT22;25336;59.944;11.010;2022-07-29T02:22:13;15.20;60.00
39655;DHT22;25336;59.944;11.010;2022-07-29T02:24:40;15.10;60.10
39655;DHT22;25336;59.944;11.010;2022-07-29T02:27:07;14.50;60.00
39655;DHT22;25336;59.944;11.010;2022-07-29T02:29:35;14.40;60.10
39655;DHT22;25336;59.944;11.010;2022-07-29T02:32:02;15.00;60.60
39655;DHT22;25336;59.944;11.010;2022-07-29T02:34:29;14.30;60.10
39655;DHT22;25336;59.944;11.010;2022-07-29T02:36:56;14.70;60.50
39655;DHT22;25336;59.944;11.010;2022-07-29T02:39:22;14.80;60.60
39655;DHT22;25336;59.944;11.010;2022-07-29T02:41:57;14.30;60.50
39655;DHT22;25336;59.944;11.010;2022-07-29T02:44:25;14.40;61.10
39655;DHT22;25336;59.944;11.010;2022-07-29T02:47:04;14.20;60.50
39655;DHT22;25336;59.944;11.010;2022-07-29T02:52:16;14.20;61.30
39655;DHT22;25336;59.944;11.010;2022-07-29T02:58:02;14.10;61.60
39655;DHT22;25336;59.944;11.010;2022-07-29T03:00:30;14.50;61.70
39655;DHT22;25336;59.944;11.010;2022-07-29T03:02:59;14.00;60.90
39655;DHT22;25336;59.944;11.010;2022-07-29T03:05:27;15.00;62.00
39655;DHT22;25336;59.944;11.010;2022-07-29T03:08:12;14.00;61.20
39655;DHT22;25336;59.944;11.010;2022-07-29T03:10:43;14.70;62.90
39655;DHT22;25336;59.944;11.010;2022-07-29T03:13:10;14.00;61.60
39655;DHT22;25336;59.944;11.010;2022-07-29T03:15:36;13.90;61.50
39655;DHT22;25336;59.944;11.010;2022-07-29T03:18:02;13.90;61.50
39655;DHT22;25336;59.944;11.010;2022-07-29T03:20:28;13.90;61.40
39655;DHT22;25336;59.944;11.010;2022-07-29T03:22:54;13.80;61.50
39655;DHT22;25336;59.944;11.010;2022-07-29T03:25:19;13.80;61.60
39655;DHT22;25336;59.944;11.010;2022-07-29T03:27:46;13.80;61.60
39655;DHT22;25336;59.944;11.010;2022-07-29T03:30:12;13.80;61.70
39655;DHT22;25336;59.944;11.010;2022-07-29T03:32:40;13.80;62.00
39655;DHT22;25336;59.944;11.010;2022-07-29T03:35:06;13.80;62.00
39655;DHT22;25336;59.944;11.010;2022-07-29T03:37:33;13.80;62.00
39655;DHT22;25336;59.944;11.010;2022-07-29T03:40:00;14.50;62.50
39655;DHT22;25336;59.944;11.010;2022-07-29T03:42:30;13.80;62.40
39655;DHT22;25336;59.944;11.010;2022-07-29T03:44:57;14.40;62.80
39655;DHT22;25336;59.944;11.010;2022-07-29T03:47:27;13.80;62.40
39655;DHT22;25336;59.944;11.010;2022-07-29T03:49:56;14.70;63.20
39655;DHT22;25336;59.944;11.010;2022-07-29T03:52:23;13.80;62.60
39655;DHT22;25336;59.944;11.010;2022-07-29T03:54:49;13.80;62.60
39655;DHT22;25336;59.944;11.010;2022-07-29T03:57:16;13.80;62.70
39655;DHT22;25336;59.944;11.010;2022-07-29T03:59:44;13.80;62.80
39655;DHT22;25336;59.944;11.010;2022-07-29T04:02:11;14.30;63.20
39655;DHT22;25336;59.944;11.010;2022-07-29T04:04:38;14.00;63.20
39655;DHT22;25336;59.944;11.010;2022-07-29T04:07:04;14.80;63.60
39655;DHT22;25336;59.944;11.010;2022-07-29T04:09:30;13.90;63.10
39655;DHT22;25336;59.944;11.010;2022-07-29T04:11:56;13.90;63.20
39655;DHT22;25336;59.944;11.010;2022-07-29T04:14:21;15.00;63.80
39655;DHT22;25336;59.944;11.010;2022-07-29T04:16:47;14.00;63.30
39655;DHT22;25336;59.944;11.010;2022-07-29T04:19:12;14.00;63.30
39655;DHT22;25336;59.944;11.010;2022-07-29T04:21:40;14.10;63.30
39655;DHT22;25336;59.944;11.010;2022-07-29T04:24:06;14.10;63.40
39655;DHT22;25336;59.944;11.010;2022-07-29T04:26:33;14.10;63.30
39655;DHT22;25336;59.944;11.010;2022-07-29T04:28:59;14.70;63.40
39655;DHT22;25336;59.944;11.010;2022-07-29T04:31:24;14.20;63.00
39655;DHT22;25336;59.944;11.010;2022-07-29T04:33:50;14.20;62.90
39655;DHT22;25336;59.944;11.010;2022-07-29T04:36:15;14.20;62.80
39655;DHT22;25336;59.944;11.010;2022-07-29T04:38:41;15.40;63.60
39655;DHT22;25336;59.944;11.010;2022-07-29T04:41:06;15.20;63.40
39655;DHT22;25336;59.944;11.010;2022-07-29T04:43:36;14.20;62.80
39655;DHT22;25336;59.944;11.010;2022-07-29T04:46:03;14.30;62.70
39655;DHT22;25336;59.944;11.010;2022-07-29T04:48:29;14.30;62.80
39655;DHT22;25336;59.944;11.010;2022-07-29T04:50:56;14.30;62.70
39655;DHT22;25336;59.944;11.010;2022-07-29T04:53:22;14.30;62.70
39655;DHT22;25336;59.944;11.010;2022-07-29T04:55:48;14.60;62.90
39655;DHT22;25336;59.944;11.010;2022-07-29T04:58:13;15.30;63.30
39655;DHT22;25336;59.944;11.010;2022-07-29T05:00:39;14.50;63.00
39655;DHT22;25336;59.944;11.010;2022-07-29T05:03:05;14.40;62.90
39655;DHT22;25336;59.944;11.010;2022-07-29T05:05:30;14.50;63.00
39655;DHT22;25336;59.944;11.010;2022-07-29T05:07:56;14.50;63.00
39655;DHT22;25336;59.944;11.010;2022-07-29T05:10:22;15.70;63.70
39655;DHT22;25336;59.944;11.010;2022-07-29T05:12:48;14.60;62.90
39655;DHT22;25336;59.944;11.010;2022-07-29T05:15:14;14.70;62.80
39655;DHT22;25336;59.944;11.010;2022-07-29T05:17:39;15.70;63.40
39655;DHT22;25336;59.944;11.010;2022-07-29T05:20:06;14.80;62.80
39655;DHT22;25336;59.944;11.010;2022-07-29T05:22:31;14.90;62.80
39655;DHT22;25336;59.944;11.010;2022-07-29T05:24:57;14.90;62.40
39655;DHT22;25336;59.944;11.010;2022-07-29T05:27:23;15.00;62.40
39655;DHT22;25336;59.944;11.010;2022-07-29T05:29:48;15.00;62.30
39655;DHT22;25336;59.944;11.010;2022-07-29T05:32:14;15.10;62.20
39655;DHT22;25336;59.944;11.010;2022-07-29T05:34:40;16.00;62.70
39655;DHT22;25336;59.944;11.010;2022-07-29T05:37:06;16.20;62.60
39655;DHT22;25336;59.944;11.010;2022-07-29T05:39:32;15.20;61.90
39655;DHT22;25336;59.944;11.010;2022-07-29T05:41:57;15.30;62.00
39655;DHT22;25336;59.944;11.010;2022-07-29T05:44:23;15.80;62.30
39655;DHT22;25336;59.944;11.010;2022-07-29T05:46:49;15.90;62.30
39655;DHT22;25336;59.944;11.010;2022-07-29T05:49:14;15.50;62.00
39655;DHT22;25336;59.944;11.010;2022-07-29T05:51:40;16.00;62.20
39655;DHT22;25336;59.944;11.010;2022-07-29T05:54:06;16.40;62.30
39655;DHT22;25336;59.944;11.010;2022-07-29T05:56:31;15.70;61.70
39655;DHT22;25336;59.944;11.010;2022-07-29T05:58:57;15.70;61.60
39655;DHT22;25336;59.944;11.010;2022-07-29T06:01:22;15.80;61.70
39655;DHT22;25336;59.944;11.010;2022-07-29T06:03:48;16.20;61.70
39655;DHT22;25336;59.944;11.010;2022-07-29T06:06:14;15.90;61.40
39655;DHT22;25336;59.944;11.010;2022-07-29T06:08:39;16.70;61.90
39655;DHT22;25336;59.944;11.010;2022-07-29T06:11:06;16.00;61.50
39655;DHT22;25336;59.944;11.010;2022-07-29T06:13:32;16.00;61.30
39655;DHT22;25336;59.944;11.010;2022-07-29T06:15:58;16.00;61.40
39655;DHT22;25336;59.944;11.010;2022-07-29T06:18:23;16.10;61.10
39655;DHT22;25336;59.944;11.010;2022-07-29T06:20:52;16.30;61.30
39655;DHT22;25336;59.944;11.010;2022-07-29T06:23:19;16.60;61.30
39655;DHT22;25336;59.944;11.010;2022-07-29T06:25:44;16.30;61.00
39655;DHT22;25336;59.944;11.010;2022-07-29T06:28:10;16.30;60.80
39655;DHT22;25336;59.944;11.010;2022-07-29T06:30:36;16.40;60.80
39655;DHT22;25336;59.944;11.010;2022-07-29T06:33:02;16.50;60.80
39655;DHT22;25336;59.944;11.010;2022-07-29T06:35:28;16.50;61.00
39655;DHT22;25336;59.944;11.010;2022-07-29T06:37:54;16.60;60.80
39655;DHT22;25336;59.944;11.010;2022-07-29T06:40:19;16.60;60.60
39655;DHT22;25336;59.944;11.010;2022-07-29T06:43:04;16.70;60.70
39655;DHT22;25336;59.944;11.010;2022-07-29T06:45:33;16.90;60.80
39655;DHT22;25336;59.944;11.010;2022-07-29T06:47:59;16.80;60.80
39655;DHT22;25336;59.944;11.010;2022-07-29T06:50:25;17.30;61.10
39655;DHT22;25336;59.944;11.010;2022-07-29T06:52:50;17.50;61.20
39655;DHT22;25336;59.944;11.010;2022-07-29T06:55:16;17.10;61.10
39655;DHT22;25336;59.944;11.010;2022-07-29T06:57:41;17.20;61.10
39655;DHT22;25336;59.944;11.010;2022-07-29T07:00:08;17.30;61.40
39655;DHT22;25336;59.944;11.010;2022-07-29T07:02:33;17.40;61.60
39655;DHT22;25336;59.944;11.010;2022-07-29T07:04:59;17.50;61.60
39655;DHT22;25336;59.944;11.010;2022-07-29T07:07:25;18.20;62.10
39655;DHT22;25336;59.944;11.010;2022-07-29T07:09:51;17.80;61.80
39655;DHT22;25336;59.944;11.010;2022-07-29T07:12:16;17.90;61.90
39655;DHT22;25336;59.944;11.010;2022-07-29T07:14:42;18.00;61.70
39655;DHT22;25336;59.944;11.010;2022-07-29T07:17:07;18.20;61.80
39655;DHT22;25336;59.944;11.010;2022-07-29T07:19:33;18.20;61.90
39655;DHT22;25336;59.944;11.010;2022-07-29T07:21:59;18.80;62.50
39655;DHT22;25336;59.944;11.010;2022-07-29T07:24:25;18.40;62.00
39655;DHT22;25336;59.944;11.010;2022-07-29T07:26:50;19.00;62.90
39655;DHT22;25336;59.944;11.010;2022-07-29T07:29:16;18.60;61.50
39655;DHT22;25336;59.944;11.010;2022-07-29T07:31:42;18.90;61.50
39655;DHT22;25336;59.944;11.010;2022-07-29T07:34:07;18.80;61.40
39655;DHT22;25336;59.944;11.010;2022-07-29T07:36:33;18.90;61.30
39655;DHT22;25336;59.944;11.010;2022-07-29T07:38:59;19.40;61.30
39655;DHT22;25336;59.944;11.010;2022-07-29T07:41:24;19.10;60.90
39655;DHT22;25336;59.944;11.010;2022-07-29T07:43:50;19.20;60.80
39655;DHT22;25336;59.944;11.010;2022-07-29T07:46:15;19.20;60.70
39655;DHT22;25336;59.944;11.010;2022-07-29T07:48:41;19.40;60.60
39655;DHT22;25336;59.944;11.010;2022-07-29T07:51:07;19.40;60.30
39655;DHT22;25336;59.944;11.010;2022-07-29T07:53:34;19.90;60.40
39655;DHT22;25336;59.944;11.010;2022-07-29T07:56:00;19.70;60.00
39655;DHT22;25336;59.944;11.010;2022-07-29T07:58:26;19.70;59.70
39655;DHT22;25336;59.944;11.010;2022-07-29T08:00:52;19.80;59.60
39655;DHT22;25336;59.944;11.010;2022-07-29T08:03:17;21.00;60.10
39655;DHT22;25336;59.944;11.010;2022-07-29T08:05:43;19.90;59.50
39655;DHT22;25336;59.944;11.010;2022-07-29T08:08:09;20.10;59.40
39655;DHT22;25336;59.944;11.010;2022-07-29T08:10:34;20.10;59.10
39655;DHT22;25336;59.944;11.010;2022-07-29T08:13:20;20.20;59.00
39655;DHT22;25336;59.944;11.010;2022-07-29T08:15:47;20.30;58.80
39655;DHT22;25336;59.944;11.010;2022-07-29T08:18:13;20.40;58.70
39655;DHT22;25336;59.944;11.010;2022-07-29T08:20:39;20.40;58.70
39655;DHT22;25336;59.944;11.010;2022-07-29T08:23:06;20.50;58.70
39655;DHT22;25336;59.944;11.010;2022-07-29T08:25:41;20.60;58.70
39655;DHT22;25336;59.944;11.010;2022-07-29T08:28:07;20.60;58.50
39655;DHT22;25336;59.944;11.010;2022-07-29T08:30:34;20.70;58.50
39655;DHT22;25336;59.944;11.010;2022-07-29T08:32:59;20.80;58.20
39655;DHT22;25336;59.944;11.010;2022-07-29T08:35:25;20.90;58.50
39655;DHT22;25336;59.944;11.010;2022-07-29T08:37:52;20.90;57.60
39655;DHT22;25336;59.944;11.010;2022-07-29T08:40:19;21.00;57.50
39655;DHT22;25336;59.944;11.010;2022-07-29T08:42:46;21.20;57.30
39655;DHT22;25336;59.944;11.010;2022-07-29T08:45:12;21.20;57.00
39655;DHT22;25336;59.944;11.010;2022-07-29T08:47:41;21.30;56.80
39655;DHT22;25336;59.944;11.010;2022-07-29T08:50:08;21.40;54.70
39655;DHT22;25336;59.944;11.010;2022-07-29T08:52:36;21.50;54.10
39655;DHT22;25336;59.944;11.010;2022-07-29T08:55:04;21.60;52.50
39655;DHT22;25336;59.944;11.010;2022-07-29T08:57:31;21.70;52.10
39655;DHT22;25336;59.944;11.010;2022-07-29T09:00:00;21.80;50.70
39655;DHT22;25336;59.944;11.010;2022-07-29T09:02:28;22.00;50.20
39655;DHT22;25336;59.944;11.010;2022-07-29T09:04:56;22.10;49.50
39655;DHT22;25336;59.944;11.010;2022-07-29T09:07:25;22.20;49.10
39655;DHT22;25336;59.944;11.010;2022-07-29T09:09:51;22.30;48.90
39655;DHT22;25336;59.944;11.010;2022-07-29T09:12:17;22.50;48.70
39655;DHT22;25336;59.944;11.010;2022-07-29T09:14:42;22.60;47.70
39655;DHT22;25336;59.944;11.010;2022-07-29T09:17:08;22.70;47.90
39655;DHT22;25336;59.944;11.010;2022-07-29T09:19:35;22.80;47.70
39655;DHT22;25336;59.944;11.010;2022-07-29T09:22:04;22.90;46.50
39655;DHT22;25336;59.944;11.010;2022-07-29T09:24:46;23.00;46.10
39655;DHT22;25336;59.944;11.010;2022-07-29T09:27:23;22.70;44.80
39655;DHT22;25336;59.944;11.010;2022-07-29T09:30:10;23.10;44.70
39655;DHT22;25336;59.944;11.010;2022-07-29T09:32:59;23.20;44.40
39655;DHT22;25336;59.944;11.010;2022-07-29T09:35:27;23.30;44.10
39655;DHT22;25336;59.944;11.010;2022-07-29T09:37:53;23.40;45.40
39655;DHT22;25336;59.944;11.010;2022-07-29T09:40:24;23.50;45.30
39655;DHT22;25336;59.944;11.010;2022-07-29T09:42:52;23.60;45.30
39655;DHT22;25336;59.944;11.010;2022-07-29T09:45:33;23.70;45.30
39655;DHT22;25336;59.944;11.010;2022-07-29T09:48:12;23.70;44.70
39655;DHT22;25336;59.944;11.010;2022-07-29T09:50:40;23.80;45.30
39655;DHT22;25336;59.944;11.010;2022-07-29T09:53:06;23.90;45.20
39655;DHT22;25336;59.944;11.010;2022-07-29T09:55:32;24.00;44.70
39655;DHT22;25336;59.944;11.010;2022-07-29T09:58:18;24.10;44.70
39655;DHT22;25336;59.944;11.010;2022-07-29T10:00:44;24.10;43.70
39655;DHT22;25336;59.944;11.010;2022-07-29T10:03:11;24.20;44.10
39655;DHT22;25336;59.944;11.010;2022-07-29T10:05:37;24.30;44.10
39655;DHT22;25336;59.944;11.010;2022-07-29T10:08:03;24.40;44.20
39655;DHT22;25336;59.944;11.010;2022-07-29T10:10:34;24.40;43.90
39655;DHT22;25336;59.944;11.010;2022-07-29T10:13:01;24.50;43.70
39655;DHT22;25336;59.944;11.010;2022-07-29T10:15:32;24.50;43.30
39655;DHT22;25336;59.944;11.010;2022-07-29T10:17:59;24.60;42.70
39655;DHT22;25336;59.944;11.010;2022-07-29T10:20:26;24.60;42.90
39655;DHT22;25336;59.944;11.010;2022-07-29T10:22:53;24.70;42.50
39655;DHT22;25336;59.944;11.010;2022-07-29T10:25:19;24.70;42.20
39655;DHT22;25336;59.944;11.010;2022-07-29T10:27:46;24.70;42.30
39655;DHT22;25336;59.944;11.010;2022-07-29T10:30:13;24.80;42.60
39655;DHT22;25336;59.944;11.010;2022-07-29T10:38:30;24.90;43.00
39655;DHT22;25336;59.944;11.010;2022-07-29T10:41:21;25.00;43.80
39655;DHT22;25336;59.944;11.010;2022-07-29T10:46:39;25.10;43.10
39655;DHT22;25336;59.944;11.010;2022-07-29T10:49:07;25.20;43.20
39655;DHT22;25336;59.944;11.010;2022-07-29T10:51:55;25.30;43.20
39655;DHT22;25336;59.944;11.010;2022-07-29T10:57:27;25.40;43.30
39655;DHT22;25336;59.944;11.010;2022-07-29T11:05:12;25.50;42.50
39655;DHT22;25336;59.944;11.010;2022-07-29T11:07:40;25.50;42.00
39655;DHT22;25336;59.944;11.010;2022-07-29T11:10:24;25.50;41.90
39655;DHT22;25336;59.944;11.010;2022-07-29T11:12:51;25.40;42.20
39655;DHT22;25336;59.944;11.010;2022-07-29T11:15:19;25.50;41.90
39655;DHT22;25336;59.944;11.010;2022-07-29T11:18:06;25.60;42.60
39655;DHT22;25336;59.944;11.010;2022-07-29T11:20:43;25.60;41.60
39655;DHT22;25336;59.944;11.010;2022-07-29T11:23:32;25.70;41.80
39655;DHT22;25336;59.944;11.010;2022-07-29T11:26:20;25.80;40.70
39655;DHT22;25336;59.944;11.010;2022-07-29T11:31:35;25.90;40.60
39655;DHT22;25336;59.944;11.010;2022-07-29T11:34:18;25.90;39.50
39655;DHT22;25336;59.944;11.010;2022-07-29T11:39:35;26.00;39.60
39655;DHT22;25336;59.944;11.010;2022-07-29T11:44:55;26.00;39.50
39655;DHT22;25336;59.944;11.010;2022-07-29T11:47:28;26.00;38.60
39655;DHT22;25336;59.944;11.010;2022-07-29T11:49:56;26.10;39.80
39655;DHT22;25336;59.944;11.010;2022-07-29T11:52:45;26.10;39.70
39655;DHT22;25336;59.944;11.010;2022-07-29T11:55:19;26.20;39.70
39655;DHT22;25336;59.944;11.010;2022-07-29T11:57:59;26.30;39.30
39655;DHT22;25336;59.944;11.010;2022-07-29T12:00:28;26.40;39.30
39655;DHT22;25336;59.944;11.010;2022-07-29T12:02:55;26.50;39.60
39655;DHT22;25336;59.944;11.010;2022-07-29T12:05:21;26.50;39.60
39655;DHT22;25336;59.944;11.010;2022-07-29T12:07:55;26.60;38.60
39655;DHT22;25336;59.944;11.010;2022-07-29T12:10:20;26.70;37.70
39655;DHT22;25336;59.944;11.010;2022-07-29T12:12:51;26.70;37.90
39655;DHT22;25336;59.944;11.010;2022-07-29T12:15:18;26.80;37.30
39655;DHT22;25336;59.944;11.010;2022-07-29T12:17:46;26.80;37.90
39655;DHT22;25336;59.944;11.010;2022-07-29T12:20:12;26.90;38.60
39655;DHT22;25336;59.944;11.010;2022-07-29T12:22:41;26.90;38.20
39655;DHT22;25336;59.944;11.010;2022-07-29T12:25:12;26.90;37.70
39655;DHT22;25336;59.944;11.010;2022-07-29T12:27:40;27.00;37.00
39655;DHT22;25336;59.944;11.010;2022-07-29T12:30:08;27.00;37.10
39655;DHT22;25336;59.944;11.010;2022-07-29T12:32:39;27.10;37.50
39655;DHT22;25336;59.944;11.010;2022-07-29T12:35:08;27.10;37.30
39655;DHT22;25336;59.944;11.010;2022-07-29T12:37:35;27.10;37.00
39655;DHT22;25336;59.944;11.010;2022-07-29T12:40:04;27.10;36.50
39655;DHT22;25336;59.944;11.010;2022-07-29T12:42:30;27.10;37.30
39655;DHT22;25336;59.944;11.010;2022-07-29T12:44:56;27.10;36.90
39655;DHT22;25336;59.944;11.010;2022-07-29T12:47:22;27.10;37.20
39655;DHT22;25336;59.944;11.010;2022-07-29T12:49:48;27.10;36.40
39655;DHT22;25336;59.944;11.010;2022-07-29T12:52:31;27.20;36.90
39655;DHT22;25336;59.944;11.010;2022-07-29T12:54:58;27.20;35.50
39655;DHT22;25336;59.944;11.010;2022-07-29T12:57:24;28.40;37.50
39655;DHT22;25336;59.944;11.010;2022-07-29T13:00:06;27.40;36.40
39655;DHT22;25336;59.944;11.010;2022-07-29T13:02:37;27.40;37.10
39655;DHT22;25336;59.944;11.010;2022-07-29T13:05:03;27.50;37.30
39655;DHT22;25336;59.944;11.010;2022-07-29T13:07:31;27.50;37.10
39655;DHT22;25336;59.944;11.010;2022-07-29T13:10:20;27.60;37.30
39655;DHT22;25336;59.944;11.010;2022-07-29T13:13:21;27.70;36.00
39655;DHT22;25336;59.944;11.010;2022-07-29T13:16:05;27.80;35.80
39655;DHT22;25336;59.944;11.010;2022-07-29T13:18:33;27.80;35.50
39655;DHT22;25336;59.944;11.010;2022-07-29T13:21:12;27.90;35.80
39655;DHT22;25336;59.944;11.010;2022-07-29T13:23:39;27.80;35.60
39655;DHT22;25336;59.944;11.010;2022-07-29T13:26:08;27.70;36.50
39655;DHT22;25336;59.944;11.010;2022-07-29T13:28:35;27.70;35.80
39655;DHT22;25336;59.944;11.010;2022-07-29T13:31:01;27.60;36.00
39655;DHT22;25336;59.944;11.010;2022-07-29T13:33:27;27.50;36.90
39655;DHT22;25336;59.944;11.010;2022-07-29T13:35:52;27.50;37.00
39655;DHT22;25336;59.944;11.010;2022-07-29T13:38:18;27.50;36.90
39655;DHT22;25336;59.944;11.010;2022-07-29T13:40:44;27.50;37.30
39655;DHT22;25336;59.944;11.010;2022-07-29T13:43:10;27.50;36.80
39655;DHT22;25336;59.944;11.010;2022-07-29T13:45:36;27.50;36.70
39655;DHT22;25336;59.944;11.010;2022-07-29T13:48:02;27.60;36.40
39655;DHT22;25336;59.944;11.010;2022-07-29T13:50:28;27.60;36.10
39655;DHT22;25336;59.944;11.010;2022-07-29T13:52:54;27.60;36.30
39655;DHT22;25336;59.944;11.010;2022-07-29T13:55:19;27.60;36.50
39655;DHT22;25336;59.944;11.010;2022-07-29T13:57:45;27.70;36.30
39655;DHT22;25336;59.944;11.010;2022-07-29T14:00:12;27.70;36.00
39655;DHT22;25336;59.944;11.010;2022-07-29T14:02:38;27.80;35.70
39655;DHT22;25336;59.944;11.010;2022-07-29T14:05:05;27.80;36.60
39655;DHT22;25336;59.944;11.010;2022-07-29T14:07:30;27.90;35.70
39655;DHT22;25336;59.944;11.010;2022-07-29T14:09:56;27.90;35.30
39655;DHT22;25336;59.944;11.010;2022-07-29T14:12:22;28.00;35.40
39655;DHT22;25336;59.944;11.010;2022-07-29T14:14:48;28.00;35.80
39655;DHT22;25336;59.944;11.010;2022-07-29T14:17:15;28.00;35.90
39655;DHT22;25336;59.944;11.010;2022-07-29T14:19:41;28.00;35.20
39655;DHT22;25336;59.944;11.010;2022-07-29T14:22:07;28.10;34.50
39655;DHT22;25336;59.944;11.010;2022-07-29T14:24:34;28.10;34.50
39655;DHT22;25336;59.944;11.010;2022-07-29T14:26:59;28.10;34.20
39655;DHT22;25336;59.944;11.010;2022-07-29T14:29:26;28.20;33.90
39655;DHT22;25336;59.944;11.010;2022-07-29T14:31:52;28.10;33.90
39655;DHT22;25336;59.944;11.010;2022-07-29T14:34:17;28.10;34.50
39655;DHT22;25336;59.944;11.010;2022-07-29T14:36:43;28.00;34.50
39655;DHT22;25336;59.944;11.010;2022-07-29T14:39:09;27.70;34.20
39655;DHT22;25336;59.944;11.010;2022-07-29T14:41:34;27.90;34.50
39655;DHT22;25336;59.944;11.010;2022-07-29T14:44:00;27.80;34.50
39655;DHT22;25336;59.944;11.010;2022-07-29T14:46:26;27.80;34.60
39655;DHT22;25336;59.944;11.010;2022-07-29T14:48:52;27.70;34.30
39655;DHT22;25336;59.944;11.010;2022-07-29T14:51:18;27.60;34.90
39655;DHT22;25336;59.944;11.010;2022-07-29T14:53:43;27.60;35.00
39655;DHT22;25336;59.944;11.010;2022-07-29T14:56:09;27.40;34.80
39655;DHT22;25336;59.944;11.010;2022-07-29T14:58:35;27.40;34.90
39655;DHT22;25336;59.944;11.010;2022-07-29T15:01:01;27.30;35.20
39655;DHT22;25336;59.944;11.010;2022-07-29T15:03:27;27.30;35.40
39655;DHT22;25336;59.944;11.010;2022-07-29T15:05:55;27.20;35.60
39655;DHT22;25336;59.944;11.010;2022-07-29T15:08:21;27.10;35.80
39655;DHT22;25336;59.944;11.010;2022-07-29T15:10:47;27.10;35.90
39655;DHT22;25336;59.944;11.010;2022-07-29T15:13:13;27.00;36.00
39655;DHT22;25336;59.944;11.010;2022-07-29T15:15:38;27.00;36.70
39655;DHT22;25336;59.944;11.010;2022-07-29T15:18:04;27.00;36.70
39655;DHT22;25336;59.944;11.010;2022-07-29T15:20:30;27.00;37.10
39655;DHT22;25336;59.944;11.010;2022-07-29T15:22:56;27.00;37.30
39655;DHT22;25336;59.944;11.010;2022-07-29T15:25:23;27.10;37.40
39655;DHT22;25336;59.944;11.010;2022-07-29T15:27:48;27.10;36.40
39655;DHT22;25336;59.944;11.010;2022-07-29T15:30:14;27.10;35.80
39655;DHT22;25336;59.944;11.010;2022-07-29T15:32:43;27.10;36.00
39655;DHT22;25336;59.944;11.010;2022-07-29T15:35:09;27.20;35.80
39655;DHT22;25336;59.944;11.010;2022-07-29T15:37:39;27.20;35.00
39655;DHT22;25336;59.944;11.010;2022-07-29T15:40:05;27.30;35.10
39655;DHT22;25336;59.944;11.010;2022-07-29T15:42:31;27.30;34.40
39655;DHT22;25336;59.944;11.010;2022-07-29T15:44:57;27.30;34.10
39655;DHT22;25336;59.944;11.010;2022-07-29T15:47:23;27.40;33.30
39655;DHT22;25336;59.944;11.010;2022-07-29T15:49:48;27.40;32.90
39655;DHT22;25336;59.944;11.010;2022-07-29T15:52:18;27.30;32.00
39655;DHT22;25336;59.944;11.010;2022-07-29T15:54:44;27.30;31.70
39655;DHT22;25336;59.944;11.010;2022-07-29T15:57:11;27.30;31.70
39655;DHT22;25336;59.944;11.010;2022-07-29T15:59:37;27.20;32.00
39655;DHT22;25336;59.944;11.010;2022-07-29T16:02:03;27.30;32.50